Time;durP1;ratioP1;P1;durP2;ratioP2;P2;SDS_P1;SDS_P2;PMS_P1;PMS_P2;Temp;Humidity;BMP_temperature;BMP_pressure;BME280_temperature;BME280_humidity;BME280_pressure;Samples;Min_cycle;Max_cycle;Signal;HPM_P1;HPM_P2
2022/03/09 00:00:47;;;;;;;5.90;5.37;;;;;;;;;;4984739;28;20422;-53
2022/03/09 00:03:13;;;;;;;5.63;5.07;;;;;;;;;;4984678;28;20464;-53
2022/03/09 00:05:39;;;;;;;5.50;5.00;;;;;;;;;;4982481;28;20448;-53
2022/03/09 00:08:05;;;;;;;6.90;5.40;;;;;;;;;;4984091;28;20422;-52
2022/03/09 00:10:31;;;;;;;4.97;4.57;;;;;;;;;;4983293;28;20429;-53
2022/03/09 00:12:57;;;;;;;5.57;4.67;;;;;;;;;;4984392;28;20438;-53
2022/03/09 00:15:23;;;;;;;5.17;4.73;;;;;;;;;;4976427;28;20426;-53
2022/03/09 00:17:50;;;;;;;8.73;5.10;;;;;;;;;;4966888;28;20426;-53
2022/03/09 00:20:16;;;;;;;5.47;4.50;;;;;;;;;;4984423;28;20422;-52
2022/03/09 00:22:41;;;;;;;4.73;4.37;;;;;;;;;;4981683;28;20761;-54
2022/03/09 00:25:08;;;;;;;6.17;4.77;;;;;;;;;;4980873;28;20529;-53
2022/03/09 00:27:34;;;;;;;6.10;5.50;;;;;;;;;;4982432;28;20469;-53
2022/03/09 00:30:01;;;;;;;4.70;4.20;;;;;;;;;;4966282;28;20484;-53
2022/03/09 00:32:27;;;;;;;5.27;4.20;;;;;;;;;;4971843;28;20812;-54
2022/03/09 00:34:53;;;;;;;6.63;5.00;;;;;;;;;;4984210;28;20422;-52
2022/03/09 00:37:20;;;;;;;7.73;5.20;;;;;;;;;;4981566;28;20976;-53
2022/03/09 00:39:46;;;;;;;6.23;5.03;;;;;;;;;;4983673;28;20430;-53
2022/03/09 00:42:12;;;;;;;7.50;5.43;;;;;;;;;;4984158;28;20781;-54
2022/03/09 00:44:38;;;;;;;5.23;4.80;;;;;;;;;;4981820;28;20553;-53
2022/03/09 00:47:04;;;;;;;5.77;4.10;;;;;;;;;;4983237;28;20525;-52
2022/03/09 00:49:30;;;;;;;7.03;4.80;;;;;;;;;;4975740;28;20473;-53
2022/03/09 00:51:56;;;;;;;5.63;5.10;;;;;;;;;;4965926;28;20976;-53
2022/03/09 00:54:22;;;;;;;5.10;4.60;;;;;;;;;;4983041;28;20461;-53
2022/03/09 00:56:48;;;;;;;6.70;5.40;;;;;;;;;;4989078;28;20473;-52
2022/03/09 00:59:14;;;;;;;5.23;4.73;;;;;;;;;;4983626;28;20422;-52
2022/03/09 01:01:40;;;;;;;5.53;5.07;;;;;;;;;;4981252;28;20202;-53
2022/03/09 01:04:06;;;;;;;6.17;5.57;;;;;;;;;;4985602;28;20794;-53
2022/03/09 01:06:32;;;;;;;6.07;5.47;;;;;;;;;;4982185;28;20419;-54
2022/03/09 01:08:59;;;;;;;6.77;5.20;;;;;;;;;;4980161;28;20829;-53
2022/03/09 01:11:25;;;;;;;7.17;5.43;;;;;;;;;;4980451;28;20419;-53
2022/03/09 01:13:51;;;;;;;5.57;4.63;;;;;;;;;;4983511;28;20445;-53
2022/03/09 01:16:17;;;;;;;6.70;5.73;;;;;;;;;;4983426;28;20500;-53
2022/03/09 01:18:43;;;;;;;6.27;5.43;;;;;;;;;;4980612;28;20427;-52
2022/03/09 01:21:09;;;;;;;6.50;5.40;;;;;;;;;;4956595;28;20612;-53
2022/03/09 01:23:35;;;;;;;6.00;4.90;;;;;;;;;;4981646;28;20466;-53
2022/03/09 01:26:01;;;;;;;6.17;5.00;;;;;;;;;;4983457;28;20425;-52
2022/03/09 01:28:27;;;;;;;6.50;5.90;;;;;;;;;;4982787;28;20770;-53
2022/03/09 01:30:53;;;;;;;9.93;6.40;;;;;;;;;;4979933;28;20425;-53
2022/03/09 01:33:19;;;;;;;7.50;5.50;;;;;;;;;;4979773;28;20423;-53
2022/03/09 01:35:45;;;;;;;5.87;4.80;;;;;;;;;;4982694;28;20462;-53
2022/03/09 01:38:11;;;;;;;7.87;5.23;;;;;;;;;;4987846;28;20476;-53
2022/03/09 01:40:37;;;;;;;5.40;4.87;;;;;;;;;;4981489;28;20942;-53
2022/03/09 01:43:04;;;;;;;6.67;4.93;;;;;;;;;;4979729;28;20426;-53
2022/03/09 01:45:31;;;;;;;5.47;4.87;;;;;;;;;;4980589;28;20516;-52
2022/03/09 01:47:57;;;;;;;5.17;4.70;;;;;;;;;;4983125;28;20426;-53
2022/03/09 01:50:23;;;;;;;5.83;5.17;;;;;;;;;;4982850;28;20426;-53
2022/03/09 01:52:49;;;;;;;5.53;4.93;;;;;;;;;;4990535;28;20830;-53
2022/03/09 01:55:16;;;;;;;6.07;5.47;;;;;;;;;;4983091;28;20908;-52
2022/03/09 01:57:42;;;;;;;5.70;5.10;;;;;;;;;;4985780;28;20426;-53
2022/03/09 02:00:08;;;;;;;5.83;5.33;;;;;;;;;;4979553;28;20514;-53
2022/03/09 02:02:34;;;;;;;5.80;5.20;;;;;;;;;;4981186;28;20427;-52
2022/03/09 02:05:01;;;;;;;6.87;5.40;;;;;;;;;;4984942;28;20523;-53
2022/03/09 02:10:11;;;;;;;5.47;5.07;;;;;;;;;;4979667;28;20476;-54
2022/03/09 02:12:38;;;;;;;12.13;5.30;;;;;;;;;;4985270;28;20422;-52
2022/03/09 02:15:04;;;;;;;5.90;5.30;;;;;;;;;;4986663;28;20545;-53
2022/03/09 02:17:30;;;;;;;6.67;5.60;;;;;;;;;;4985352;28;20450;-53
2022/03/09 02:19:57;;;;;;;5.80;5.30;;;;;;;;;;4983197;28;20430;-53
2022/03/09 02:22:23;;;;;;;6.83;5.90;;;;;;;;;;4983083;28;20425;-53
2022/03/09 02:24:50;;;;;;;5.50;5.00;;;;;;;;;;4986406;28;20858;-53
2022/03/09 02:27:17;;;;;;;6.23;5.60;;;;;;;;;;4981953;28;20573;-53
2022/03/09 02:29:43;;;;;;;9.30;6.20;;;;;;;;;;4983037;28;20427;-52
2022/03/09 02:32:10;;;;;;;7.10;5.67;;;;;;;;;;4982659;28;20434;-52
2022/03/09 02:34:36;;;;;;;5.33;4.90;;;;;;;;;;4984609;28;20581;-53
2022/03/09 02:37:02;;;;;;;6.73;6.03;;;;;;;;;;4986230;28;20508;-52
2022/03/09 02:39:28;;;;;;;8.93;6.23;;;;;;;;;;4983593;28;20501;-53
2022/03/09 02:41:54;;;;;;;5.50;5.00;;;;;;;;;;4986191;28;20468;-52
2022/03/09 02:44:20;;;;;;;7.03;5.87;;;;;;;;;;4965374;28;20462;-53
2022/03/09 02:46:46;;;;;;;6.43;5.73;;;;;;;;;;4982559;28;20433;-54
2022/03/09 02:49:12;;;;;;;6.33;5.67;;;;;;;;;;4982723;28;20458;-53
2022/03/09 02:51:38;;;;;;;13.00;5.53;;;;;;;;;;4984501;28;20451;-53
2022/03/09 02:54:04;;;;;;;6.63;5.13;;;;;;;;;;4985990;28;20965;-52
2022/03/09 02:56:31;;;;;;;7.80;6.00;;;;;;;;;;4985791;28;20967;-53
2022/03/09 02:58:57;;;;;;;11.90;5.90;;;;;;;;;;4985252;28;20492;-53
2022/03/09 03:01:23;;;;;;;6.90;5.53;;;;;;;;;;4985695;28;20427;-53
2022/03/09 03:03:49;;;;;;;5.37;4.90;;;;;;;;;;4985729;28;20460;-53
2022/03/09 03:06:15;;;;;;;8.43;5.10;;;;;;;;;;4985739;28;20450;-53
2022/03/09 03:08:42;;;;;;;9.90;5.00;;;;;;;;;;4983292;28;20427;-53
2022/03/09 03:11:09;;;;;;;5.87;5.40;;;;;;;;;;4982281;28;20415;-53
2022/03/09 03:13:35;;;;;;;9.10;6.20;;;;;;;;;;4983813;28;20841;-53
2022/03/09 03:16:01;;;;;;;11.60;5.50;;;;;;;;;;4984279;28;20431;-53
2022/03/09 03:18:27;;;;;;;13.30;5.53;;;;;;;;;;4982442;28;20498;-53
2022/03/09 03:20:54;;;;;;;6.13;5.10;;;;;;;;;;4985431;28;20921;-53
2022/03/09 03:23:24;;;;;;;8.70;6.10;;;;;;;;;;4985433;28;20466;-53
2022/03/09 03:25:51;;;;;;;7.70;6.00;;;;;;;;;;4985630;28;20422;-54
2022/03/09 03:28:17;;;;;;;8.60;5.50;;;;;;;;;;4985189;28;20418;-53
2022/03/09 03:30:43;;;;;;;11.30;6.23;;;;;;;;;;4982524;28;20754;-52
2022/03/09 03:33:10;;;;;;;7.70;6.00;;;;;;;;;;4981869;28;21017;-53
2022/03/09 03:35:36;;;;;;;7.80;7.00;;;;;;;;;;4975668;28;20435;-53
2022/03/09 03:38:02;;;;;;;7.40;5.97;;;;;;;;;;4985183;28;20430;-53
2022/03/09 03:40:28;;;;;;;7.43;5.80;;;;;;;;;;4984596;28;20421;-53
2022/03/09 03:42:54;;;;;;;6.70;5.80;;;;;;;;;;4981636;28;20415;-53
2022/03/09 03:45:20;;;;;;;9.57;5.97;;;;;;;;;;4981676;28;20466;-53
2022/03/09 03:47:46;;;;;;;9.00;6.27;;;;;;;;;;4984439;28;20513;-52
2022/03/09 03:50:12;;;;;;;7.87;5.23;;;;;;;;;;4984503;28;20477;-53
2022/03/09 03:52:38;;;;;;;6.67;5.43;;;;;;;;;;4984639;28;20478;-53
2022/03/09 03:55:04;;;;;;;6.40;5.20;;;;;;;;;;4984973;28;20430;-53
2022/03/09 03:57:30;;;;;;;5.53;5.10;;;;;;;;;;4990102;28;20434;-54
2022/03/09 03:59:56;;;;;;;5.27;4.60;;;;;;;;;;4984942;28;20776;-53
2022/03/09 04:02:23;;;;;;;5.30;4.80;;;;;;;;;;4984700;28;20930;-53
2022/03/09 04:04:50;;;;;;;6.13;5.47;;;;;;;;;;4989283;28;20459;-53
2022/03/09 04:07:16;;;;;;;6.10;5.50;;;;;;;;;;4975742;28;20435;-53
2022/03/09 04:09:42;;;;;;;8.40;5.60;;;;;;;;;;4983724;28;20438;-53
2022/03/09 04:12:09;;;;;;;6.00;4.50;;;;;;;;;;4984466;28;20419;-53
2022/03/09 04:14:35;;;;;;;4.63;4.23;;;;;;;;;;4965699;28;20441;-52
2022/03/09 04:17:01;;;;;;;7.47;6.27;;;;;;;;;;4963457;28;20434;-52
2022/03/09 04:19:27;;;;;;;7.13;5.03;;;;;;;;;;4981822;28;20431;-53
2022/03/09 04:21:53;;;;;;;6.93;5.07;;;;;;;;;;4964961;28;20439;-53
2022/03/09 04:24:19;;;;;;;8.40;5.53;;;;;;;;;;4980323;28;20465;-52
2022/03/09 04:26:45;;;;;;;9.43;5.93;;;;;;;;;;4981178;28;20435;-53
2022/03/09 04:29:11;;;;;;;5.93;4.83;;;;;;;;;;4981043;28;20470;-53
2022/03/09 04:31:37;;;;;;;6.27;5.00;;;;;;;;;;4982649;28;20424;-52
2022/03/09 04:34:03;;;;;;;5.13;4.70;;;;;;;;;;4984269;28;20438;-53
2022/03/09 04:36:29;;;;;;;8.07;5.50;;;;;;;;;;4966096;28;20802;-53
2022/03/09 04:38:55;;;;;;;5.97;5.20;;;;;;;;;;4983057;28;20516;-53
2022/03/09 04:41:22;;;;;;;5.80;5.30;;;;;;;;;;4976177;28;20423;-53
2022/03/09 04:43:48;;;;;;;8.47;5.83;;;;;;;;;;4983936;28;20462;-53
2022/03/09 04:46:14;;;;;;;13.33;5.60;;;;;;;;;;4984280;28;20423;-53
2022/03/09 04:48:40;;;;;;;9.30;5.70;;;;;;;;;;4981655;28;20424;-53
2022/03/09 04:51:06;;;;;;;8.87;6.10;;;;;;;;;;4980648;28;20431;-53
2022/03/09 04:53:32;;;;;;;6.23;5.67;;;;;;;;;;4989061;28;20465;-54
2022/03/09 04:55:58;;;;;;;8.80;5.30;;;;;;;;;;4980987;28;20481;-54
2022/03/09 04:58:24;;;;;;;7.27;5.47;;;;;;;;;;4988912;28;20466;-55
2022/03/09 05:00:51;;;;;;;9.30;6.43;;;;;;;;;;4984681;28;20462;-54
2022/03/09 05:03:17;;;;;;;7.37;5.67;;;;;;;;;;4985577;28;20534;-54
2022/03/09 05:05:43;;;;;;;7.20;5.83;;;;;;;;;;4968004;28;20430;-53
2022/03/09 05:08:12;;;;;;;5.80;5.20;;;;;;;;;;4985291;28;20445;-54
2022/03/09 05:10:38;;;;;;;6.40;5.37;;;;;;;;;;4989523;28;20438;-53
2022/03/09 05:13:05;;;;;;;7.50;5.50;;;;;;;;;;4986827;28;20434;-53
2022/03/09 05:15:31;;;;;;;6.57;5.50;;;;;;;;;;4984281;28;20526;-55
2022/03/09 05:17:57;;;;;;;7.80;5.03;;;;;;;;;;4987035;28;20434;-53
2022/03/09 05:20:23;;;;;;;8.73;5.33;;;;;;;;;;4986430;28;20535;-54
2022/03/09 05:22:49;;;;;;;9.13;6.47;;;;;;;;;;4990397;28;20485;-55
2022/03/09 05:25:16;;;;;;;10.60;5.37;;;;;;;;;;4969751;28;20462;-53
2022/03/09 05:27:42;;;;;;;5.33;4.73;;;;;;;;;;4986558;28;20533;-54
2022/03/09 05:30:09;;;;;;;7.10;5.50;;;;;;;;;;4991325;28;20783;-55
2022/03/09 05:32:35;;;;;;;7.33;5.13;;;;;;;;;;4980848;28;20424;-53
2022/03/09 05:35:01;;;;;;;5.87;5.10;;;;;;;;;;4991055;28;20529;-53
2022/03/09 05:37:28;;;;;;;5.27;4.80;;;;;;;;;;4982679;28;20477;-54
2022/03/09 05:39:55;;;;;;;6.17;5.00;;;;;;;;;;4986440;28;20864;-56
2022/03/09 05:42:21;;;;;;;12.20;5.30;;;;;;;;;;4988144;28;20454;-56
2022/03/09 05:44:47;;;;;;;8.23;5.60;;;;;;;;;;4980799;28;20477;-57
2022/03/09 05:47:13;;;;;;;5.67;5.17;;;;;;;;;;4983435;28;20431;-57
2022/03/09 05:49:39;;;;;;;9.93;5.53;;;;;;;;;;4987992;28;20446;-56
2022/03/09 05:52:05;;;;;;;5.80;5.20;;;;;;;;;;4984743;28;20980;-56
2022/03/09 05:54:31;;;;;;;6.40;5.80;;;5.10;99.90;;;;;;4984660;28;20445;-54
2022/03/09 05:56:56;;;;;;;4.37;4.00;;;2.90;99.90;;;;;;4990550;28;20450;-53
2022/03/09 05:59:22;;;;;;;7.03;5.80;;;2.90;99.90;;;;;;4983167;28;20612;-55
2022/03/09 06:01:48;;;;;;;7.27;5.57;;;;;;;;;;4989599;28;20184;-57
2022/03/09 06:04:14;;;;;;;5.53;4.97;;;;;;;;;;4976451;28;20239;-55
2022/03/09 06:06:40;;;;;;;5.63;5.13;;;;;;;;;;4991262;28;20449;-53
2022/03/09 06:09:06;;;;;;;6.83;5.07;;;;;;;;;;4982350;28;20983;-54
2022/03/09 06:11:32;;;;;;;7.20;5.10;;;;;;;;;;4983925;28;20435;-53
2022/03/09 06:13:58;;;;;;;7.57;4.80;;;;;;;;;;4981920;28;20951;-53
2022/03/09 06:16:24;;;;;;;7.83;5.40;;;;;;;;;;4982734;28;20419;-54
2022/03/09 06:18:50;;;;;;;6.97;5.80;;;;;;;;;;4979511;28;20924;-53
2022/03/09 06:21:16;;;;;;;8.87;5.50;;;;;;;;;;4961674;28;20434;-54
2022/03/09 06:23:42;;;;;;;7.80;5.40;;;;;;;;;;4981840;28;20876;-54
2022/03/09 06:26:08;;;;;;;10.10;6.90;;;;;;;;;;4982829;28;20422;-54
2022/03/09 06:28:35;;;;;;;5.70;5.27;;;;;;;;;;4981260;28;20480;-54
2022/03/09 06:31:01;;;;;;;8.83;5.10;;;;;;;;;;4979427;28;20442;-54
2022/03/09 06:33:27;;;;;;;8.63;5.60;;;;;;;;;;4979881;28;20435;-54
2022/03/09 06:35:53;;;;;;;9.27;5.67;;;;;;;;;;4982497;28;20429;-53
2022/03/09 06:38:19;;;;;;;9.00;5.20;;;;;;;;;;4982801;28;20425;-54
2022/03/09 06:40:45;;;;;;;5.97;4.83;;;;;;;;;;4979763;28;20419;-54
2022/03/09 06:43:11;;;;;;;6.03;5.53;;;;;;;;;;4979206;28;20427;-53
2022/03/09 06:45:37;;;;;;;6.67;4.90;;;;;;;;;;4981048;28;20498;-53
2022/03/09 06:48:04;;;;;;;5.40;4.97;;;;;;;;;;4982573;28;20955;-53
2022/03/09 06:50:30;;;;;;;10.60;5.40;;;;;;;;;;4964054;28;20956;-54
2022/03/09 06:52:56;;;;;;;10.57;5.00;;;;;;;;;;4982339;28;20465;-54
2022/03/09 06:55:23;;;;;;;7.77;5.20;;;;;;;;;;4965155;28;20535;-52
2022/03/09 06:57:49;;;;;;;7.43;5.13;;;;;;;;;;4990548;28;20442;-52
2022/03/09 07:00:15;;;;;;;5.57;4.90;;;;;;;;;;4964810;28;20786;-52
2022/03/09 07:02:42;;;;;;;7.70;6.07;;;;;;;;;;4984773;28;20423;-51
2022/03/09 07:05:08;;;;;;;11.70;6.00;;;;;;;;;;4985925;28;20497;-52
2022/03/09 07:07:35;;;;;;;6.90;5.20;;;;;;;;;;4985595;28;20924;-53
2022/03/09 07:10:01;;;;;;;6.30;5.70;;;;;;;;;;4985811;28;20932;-53
2022/03/09 07:12:27;;;;;;;6.30;5.20;;;;;;;;;;4985156;28;20473;-53
2022/03/09 07:14:53;;;;;;;6.67;5.90;;;;;;;;;;4982132;28;20932;-53
2022/03/09 07:17:19;;;;;;;6.93;5.33;;;;;;;;;;4982189;28;20529;-52
2022/03/09 07:19:45;;;;;;;7.60;5.20;;;;;;;;;;4984957;28;20436;-52
2022/03/09 07:22:11;;;;;;;6.13;5.07;;;;;;;;;;4985504;28;20518;-52
2022/03/09 07:24:37;;;;;;;7.50;5.53;;;;;;;;;;4983592;28;20457;-51
2022/03/09 07:27:04;;;;;;;5.20;4.70;;;;;;;;;;4981924;28;20419;-53
2022/03/09 07:29:30;;;;;;;6.10;5.50;;;;;;;;;;4982980;28;20498;-53
2022/03/09 07:31:56;;;;;;;8.70;6.23;;;;;;;;;;4967823;28;20438;-52
2022/03/09 07:34:26;;;;;;;6.97;6.17;;;;;;;;;;4985232;28;20426;-50
2022/03/09 07:36:57;;;;;;;6.27;5.67;;;;;;;;;;4989456;28;20474;-52
2022/03/09 07:39:24;;;;;;;6.67;5.23;;;;;;;;;;4981849;28;20423;-53
2022/03/09 07:41:50;;;;;;;8.00;5.80;;;;;;;;;;4985284;28;20422;-51
2022/03/09 07:44:16;;;;;;;5.80;5.20;;;;;;;;;;4985064;28;20569;-52
2022/03/09 07:46:42;;;;;;;6.40;5.73;;;;;;;;;;4984846;28;20482;-52
2022/03/09 07:49:08;;;;;;;7.30;6.30;;;;;;;;;;4984952;28;20425;-52
2022/03/09 07:51:34;;;;;;;6.10;5.50;;;;;;;;;;4983322;28;20426;-52
2022/03/09 07:54:00;;;;;;;9.47;6.90;;;;;;;;;;4981718;28;20430;-51
2022/03/09 07:56:26;;;;;;;6.23;5.73;;;;;;;;;;4987362;28;20430;-52
2022/03/09 07:58:52;;;;;;;6.33;5.73;;;;;;;;;;4984802;28;20501;-50
2022/03/09 08:01:19;;;;;;;5.37;4.93;;;;;;;;;;4984532;28;20426;-52
2022/03/09 08:03:46;;;;;;;8.00;6.20;;;;;;;;;;4981313;28;20470;-51
2022/03/09 08:06:12;;;;;;;6.27;5.70;;;;;;;;;;4981365;28;20932;-51
2022/03/09 08:08:38;;;;;;;6.13;5.60;;;;;;;;;;4986324;28;20445;-51
2022/03/09 08:11:04;;;;;;;6.27;5.67;;;;;;;;;;4981227;28;20910;-52
2022/03/09 08:13:30;;;;;;;7.03;4.83;;;;;;;;;;4982007;28;20434;-51
2022/03/09 08:15:56;;;;;;;8.73;5.70;;;;;;;;;;4984484;28;20418;-52
2022/03/09 08:18:22;;;;;;;6.87;6.23;;;;;;;;;;4984631;28;20896;-52
2022/03/09 08:20:48;;;;;;;8.27;5.77;;;;;;;;;;4981191;28;20427;-52
2022/03/09 08:23:14;;;;;;;16.13;5.90;;;;;;;;;;4980793;28;20427;-51
2022/03/09 08:25:40;;;;;;;8.53;6.13;;;;;;;;;;4983239;28;20649;-52
2022/03/09 08:28:06;;;;;;;12.57;6.23;;;;;;;;;;4984193;28;20975;-51
2022/03/09 08:30:32;;;;;;;5.97;5.37;;;;;;;;;;4983027;28;20485;-52
2022/03/09 08:32:58;;;;;;;6.43;5.30;;;;;;;;;;4980686;28;20427;-51
2022/03/09 08:35:24;;;;;;;6.27;5.67;;;;;;;;;;4963244;28;20438;-52
2022/03/09 08:37:50;;;;;;;6.60;5.10;;;;;;;;;;4984048;28;20456;-52
2022/03/09 08:40:17;;;;;;;7.60;4.90;;;;;;;;;;4984332;28;20517;-52
2022/03/09 08:42:43;;;;;;;8.17;5.53;;;;;;;;;;4981348;28;20434;-52
2022/03/09 08:45:09;;;;;;;7.43;6.83;;;;;;;;;;4980557;28;20463;-51
2022/03/09 08:47:35;;;;;;;8.53;5.40;;;;;;;;;;4982136;28;20902;-49
2022/03/09 08:50:01;;;;;;;6.83;5.50;;;;;;;;;;4983800;28;20484;-52
2022/03/09 08:52:27;;;;;;;7.53;6.40;;;;;;;;;;4983220;28;20470;-51
2022/03/09 08:54:53;;;;;;;9.53;5.53;;;;;;;;;;4980524;28;20431;-53
2022/03/09 08:57:21;;;;;;;6.10;5.60;;;;;;;;;;4970689;28;20860;-53
2022/03/09 08:59:48;;;;;;;7.07;5.07;;;;;;;;;;4980263;28;20465;-53
2022/03/09 09:02:14;;;;;;;7.10;5.67;;;;;;;;;;4980437;28;20556;-53
2022/03/09 09:04:40;;;;;;;8.53;5.37;;;;;;;;;;4982321;28;20470;-52
2022/03/09 09:07:06;;;;;;;5.70;5.17;;;;;;;;;;4983071;28;20430;-52
2022/03/09 09:09:33;;;;;;;6.47;5.63;;;;;;;;;;4981438;28;20419;-52
2022/03/09 09:11:59;;;;;;;11.00;5.27;;;;;;;;;;4983804;28;20427;-50
2022/03/09 09:14:26;;;;;;;7.23;6.40;;;;;;;;;;4982281;28;20521;-52
2022/03/09 09:16:52;;;;;;;6.37;5.50;;;;;;;;;;4980141;28;20527;-53
2022/03/09 09:19:18;;;;;;;5.83;5.33;;;;;;;;;;4980226;28;20419;-51
2022/03/09 09:21:45;;;;;;;7.17;4.90;;;;;;;;;;4982829;28;20434;-52
2022/03/09 09:24:11;;;;;;;13.20;5.87;;;;;;;;;;4983375;28;20569;-53
2022/03/09 09:26:37;;;;;;;7.80;5.47;;;;;;;;;;4981544;28;20450;-51
2022/03/09 09:29:03;;;;;;;7.30;5.57;;;;;;;;;;4979707;28;20434;-51
2022/03/09 09:31:29;;;;;;;6.27;5.20;;;;;;;;;;4981012;28;20514;-51
2022/03/09 09:33:55;;;;;;;7.53;6.13;;;;;;;;;;4983402;28;20476;-52
2022/03/09 09:36:22;;;;;;;10.77;6.17;;;;;;;;;;4983352;28;20418;-52
2022/03/09 09:38:48;;;;;;;7.23;6.33;;;;;;;;;;4980026;28;20436;-52
2022/03/09 09:41:18;;;;;;;7.57;6.40;;;;;;;;;;4979899;28;20434;-52
2022/03/09 09:43:44;;;;;;;13.50;6.03;;;;;;;;;;4982407;28;20552;-51
2022/03/09 09:46:15;;;;;;;6.70;5.20;;;;;;;;;;4983412;28;20414;-51
2022/03/09 09:48:41;;;;;;;7.77;5.10;;;;;;;;;;4980955;28;20433;-53
2022/03/09 09:51:08;;;;;;;6.30;5.20;;;;;;;;;;4980027;28;20423;-53
2022/03/09 09:53:35;;;;;;;6.50;5.90;;;;;;;;;;4980981;28;20463;-51
2022/03/09 09:56:02;;;;;;;6.33;5.70;;;;;;;;;;4983111;28;20453;-52
2022/03/09 09:58:28;;;;;;;9.57;6.20;;;;;;;;;;4983209;28;20493;-53
2022/03/09 10:00:54;;;;;;;8.80;5.50;;;;;;;;;;4982880;28;20452;-53
2022/03/09 10:03:21;;;;;;;6.17;5.37;;;;;;;;;;4983114;28;20422;-53
2022/03/09 10:05:47;;;;;;;12.47;7.30;;;;;;;;;;4980103;28;20419;-53
2022/03/09 10:08:14;;;;;;;7.13;6.40;;;;;;;;;;4983151;28;20422;-53
2022/03/09 10:10:40;;;;;;;10.90;6.10;;;;;;;;;;4980837;28;20464;-51
2022/03/09 10:13:14;;;;;;;9.17;5.87;;;;;;;;;;4979758;28;20774;-53
2022/03/09 10:15:41;;;;;;;10.37;6.10;;;;;;;;;;4981511;28;20470;-53
2022/03/09 10:18:21;;;;;;;8.27;6.17;;;;;;;;;;4982931;28;20484;-53
2022/03/09 10:20:48;;;;;;;7.13;5.50;;;;;;;;;;4979761;28;20427;-53
2022/03/09 10:23:14;;;;;;;5.63;5.13;;;;;;;;;;4979590;28;20443;-53
2022/03/09 10:25:40;;;;;;;6.67;5.63;;;;;;;;;;4965460;28;20462;-53
2022/03/09 10:28:08;;;;;;;7.03;6.33;;;;;;;;;;4986673;28;20457;-52
2022/03/09 10:30:35;;;;;;;8.27;5.90;;;;;;;;;;4984920;28;20421;-53
2022/03/09 10:33:02;;;;;;;8.90;5.17;;;;;;;;;;4983173;28;20430;-53
2022/03/09 10:35:31;;;;;;;7.93;6.67;;;;;;;;;;4983795;28;21262;-53
2022/03/09 10:37:57;;;;;;;6.13;5.53;;;;;;;;;;4986274;28;20430;-52
2022/03/09 10:40:24;;;;;;;6.80;5.30;;;;;;;;;;4986275;28;20427;-53
2022/03/09 10:42:50;;;;;;;8.00;5.67;;;;;;;;;;4986571;28;20191;-54
2022/03/09 10:45:17;;;;;;;5.83;5.33;;;;;;;;;;4968571;28;20524;-52
2022/03/09 10:47:50;;;;;;;6.23;5.63;;;;;;;;;;4983479;28;20445;-52
2022/03/09 10:50:20;;;;;;;6.33;5.10;;;;;;;;;;4982636;28;20427;-53
2022/03/09 10:52:59;;;;;;;5.30;4.80;;;;;;;;;;4985487;28;20508;-53
2022/03/09 10:55:28;;;;;;;4.93;4.60;;;;;;;;;;4985742;28;20763;-54
2022/03/09 10:58:07;;;;;;;9.87;5.43;;;;;;;;;;4988069;28;20478;-53
2022/03/09 11:00:37;;;;;;;6.10;5.60;;;;;;;;;;4983534;28;21000;-52
2022/03/09 11:03:07;;;;;;;7.30;5.30;;;;;;;;;;4985948;28;20423;-53
2022/03/09 11:05:33;;;;;;;10.73;5.40;;;;;;;;;;4984568;28;20552;-53
2022/03/09 11:07:59;;;;;;;6.43;5.40;;;;;;;;;;4984384;28;20422;-53
2022/03/09 11:10:26;;;;;;;7.90;5.30;;;;;;;;;;4985496;28;20509;-53
2022/03/09 11:12:52;;;;;;;8.53;5.77;;;;;;;;;;4982204;28;20498;-53
2022/03/09 11:15:20;;;;;;;6.17;5.67;;;;;;;;;;4982166;28;20419;-54
2022/03/09 11:17:48;;;;;;;6.00;5.23;;;;;;;;;;4985122;28;20434;-53
2022/03/09 11:20:18;;;;;;;7.60;5.70;;;;;;;;;;4985735;28;20796;-57
2022/03/09 11:22:44;;;;;;;5.87;5.37;;;;;;;;;;4982923;28;20446;-56
2022/03/09 11:25:12;;;;;;;4.80;4.50;;;;;;;;;;4981988;28;20517;-57
2022/03/09 11:27:43;;;;;;;5.50;4.87;;;;;;;;;;4983996;28;20419;-57
2022/03/09 11:30:26;;;;;;;5.10;4.70;;;;;;;;;;4985394;28;20410;-53
2022/03/09 11:32:54;;;;;;;7.63;5.67;;;;;;;;;;4985827;28;20776;-54
2022/03/09 11:35:40;;;;;;;5.97;5.40;;;;;;;;;;4985454;28;20422;-55
2022/03/09 11:38:25;;;;;;;9.13;6.00;;;;;;;;;;4983873;28;20430;-54
2022/03/09 11:41:12;;;;;;;6.13;5.53;;;2.90;99.90;;;;;;4985571;28;20465;-55
2022/03/09 11:43:39;;;;;;;7.20;5.50;;;;;;;;;;4983030;28;20833;-57
2022/03/09 11:46:05;;;;;;;5.73;5.20;;;;;;;;;;4981710;28;20430;-56
2022/03/09 11:48:52;;;;;;;6.17;5.17;;;19.30;1.00;;;;;;4982721;28;20431;-55
2022/03/09 11:51:23;;;;;;;9.60;6.93;;;19.10;1.00;;;;;;4985098;28;20465;-55
2022/03/09 11:53:55;;;;;;;7.63;6.03;;;19.10;1.00;;;;;;4962501;28;20512;-60
2022/03/09 11:56:33;;;;;;;9.03;5.40;;;;;;;;;;4962807;28;20423;-57
2022/03/09 11:59:15;;;;;;;6.70;5.57;;;;;;;;;;4951246;29;20475;-56
2022/03/09 12:02:04;;;;;;;6.33;5.83;;;;;;;;;;4963064;28;20431;-56
2022/03/09 12:04:45;;;;;;;4.93;4.63;;;;;;;;;;4964602;28;20466;-54
2022/03/09 12:07:34;;;;;;;6.63;5.43;;;19.20;1.00;;;;;;4960484;28;20440;-56
2022/03/09 12:10:01;;;;;;;7.80;5.50;;;;;;;;;;4962132;28;20454;-58
2022/03/09 12:12:28;;;;;;;9.80;5.47;;;;;;;;;;4962547;28;20770;-57
2022/03/09 12:15:05;;;;;;;6.03;5.20;;;;;;;;;;4965150;28;20880;-56
2022/03/09 12:17:34;;;;;;;4.97;4.60;;;;;;;;;;4962876;28;20434;-57
2022/03/09 12:20:18;;;;;;;7.10;5.80;;;;;;;;;;4962086;28;20780;-58
2022/03/09 12:22:59;;;;;;;7.20;5.80;;;;;;;;;;4963369;28;20439;-57
2022/03/09 12:25:41;;;;;;;7.50;6.63;;;;;;;;;;4963671;28;20525;-58
2022/03/09 12:28:29;;;;;;;6.90;6.30;;;;;;;;;;4960242;28;20447;-57
2022/03/09 12:30:56;;;;;;;12.90;5.70;;;;;;;;;;4965155;28;20419;-55
2022/03/09 12:33:28;;;;;;;6.03;5.50;;;;;;;;;;4965136;28;20427;-57
2022/03/09 12:36:09;;;;;;;7.67;5.80;;;;;;;;;;4965527;28;20449;-57
2022/03/09 12:38:38;;;;;;;5.70;5.10;;;;;;;;;;4962091;28;20793;-55
2022/03/09 12:41:05;;;;;;;9.40;6.33;;;;;;;;;;4961638;28;20491;-58
2022/03/09 12:43:47;;;;;;;10.40;5.93;;;;;;;;;;4962321;28;20412;-57
2022/03/09 12:46:14;;;;;;;5.97;5.43;;;;;;;;;;4964918;28;20429;-57
2022/03/09 12:48:41;;;;;;;7.80;5.53;;;;;;;;;;4960913;28;20489;-58
2022/03/09 12:51:07;;;;;;;6.27;5.67;;;;;;;;;;4961350;28;20420;-56
2022/03/09 12:53:33;;;;;;;7.20;5.80;;;;;;;;;;4979926;28;20594;-56
2022/03/09 12:56:13;;;;;;;6.17;5.57;;;17.30;1.00;;;;;;4966542;28;20422;-57
2022/03/09 12:58:39;;;;;;;6.47;5.87;;;;;;;;;;4983963;28;20423;-56
2022/03/09 13:01:09;;;;;;;6.23;5.63;;;15.60;1.00;;;;;;4966467;28;20496;-56
2022/03/09 13:03:37;;;;;;;7.03;6.33;;;;;;;;;;4964674;28;20438;-55
2022/03/09 13:06:06;;;;;;;9.83;6.03;;;;;;;;;;4980343;28;20921;-56
2022/03/09 13:08:36;;;;;;;7.37;5.53;;;;;;;;;;4970884;28;20462;-56
2022/03/09 13:11:04;;;;;;;6.43;5.53;;;;;;;;;;4980622;28;20422;-57
2022/03/09 13:13:32;;;;;;;9.67;5.33;;;;;;;;;;4981037;28;20470;-55
2022/03/09 13:16:03;;;;;;;6.53;5.93;;;;;;;;;;4983720;28;20433;-58
2022/03/09 13:18:29;;;;;;;6.33;5.67;;;;;;;;;;4983198;28;20422;-57
2022/03/09 13:20:57;;;;;;;5.50;5.10;;;;;;;;;;4976532;28;20517;-58
2022/03/09 13:23:29;;;;;;;7.33;5.63;;;;;;;;;;4983610;28;20418;-55
2022/03/09 13:25:56;;;;;;;5.37;4.87;;;;;;;;;;4983193;28;20430;-57
2022/03/09 13:28:30;;;;;;;6.60;4.83;;;;;;;;;;4983218;28;20414;-55
2022/03/09 13:30:56;;;;;;;7.63;5.47;;;;;;;;;;4984502;28;20410;-56
2022/03/09 13:33:23;;;;;;;5.97;5.47;;;;;;;;;;4983467;28;20410;-58
2022/03/09 13:35:51;;;;;;;5.50;5.00;;;;;;;;;;4979015;28;20423;-56
2022/03/09 13:38:24;;;;;;;5.43;4.93;;;;;;;;;;4969520;28;20422;-56
2022/03/09 13:40:51;;;;;;;6.23;5.67;;;;;;;;;;4970383;28;20430;-57
2022/03/09 13:43:18;;;;;;;6.60;6.00;;;;;;;;;;4962344;28;20449;-56
2022/03/09 13:45:47;;;;;;;5.53;5.03;;;;;;;;;;4964928;28;21097;-57
2022/03/09 13:48:22;;;;;;;7.80;5.70;;;;;;;;;;4965862;28;20426;-54
2022/03/09 13:50:59;;;;;;;6.93;6.27;;;;;;;;;;4962569;28;20419;-57
2022/03/09 13:53:30;;;;;;;7.73;5.20;;;;;;;;;;4962185;28;20471;-59
2022/03/09 13:55:57;;;;;;;6.50;5.10;;;;;;;;;;4965712;28;20426;-55
2022/03/09 13:58:27;;;;;;;8.80;5.53;;;;;;;;;;4965921;28;20479;-59
2022/03/09 14:01:10;;;;;;;6.23;5.50;;;15.80;1.00;;;;;;4967775;28;20468;-57
2022/03/09 14:03:44;;;;;;;8.63;5.10;;;;;;;;;;4968100;28;20454;-53
2022/03/09 14:06:23;;;;;;;5.43;4.93;;;;;;;;;;4983573;28;20455;-51
2022/03/09 14:08:50;;;;;;;6.70;4.77;;;;;;;;;;4971008;28;20446;-53
2022/03/09 14:11:16;;;;;;;4.90;4.40;;;;;;;;;;4983382;28;20427;-53
2022/03/09 14:14:00;;;;;;;6.00;5.50;;;;;;;;;;4985804;28;20431;-53
2022/03/09 14:16:28;;;;;;;5.67;4.90;;;;;;;;;;4986302;28;20454;-52
2022/03/09 14:18:54;;;;;;;5.20;4.43;;;;;;;;;;4965960;28;20442;-53
2022/03/09 14:21:20;;;;;;;8.10;5.50;;;;;;;;;;4983520;28;20451;-52
2022/03/09 14:23:50;;;;;;;5.17;4.67;;;;;;;;;;4986104;28;20501;-53
2022/03/09 14:26:16;;;;;;;5.63;5.13;;;;;;;;;;4986536;28;20517;-53
2022/03/09 14:28:43;;;;;;;6.23;5.37;;;;;;;;;;4983777;28;20422;-53
2022/03/09 14:31:09;;;;;;;5.10;4.23;;;;;;;;;;4983317;28;20882;-53
2022/03/09 14:33:35;;;;;;;6.10;4.43;;;;;;;;;;4984368;28;20776;-53
2022/03/09 14:36:03;;;;;;;4.83;4.43;;;;;;;;;;4986420;28;20429;-53
2022/03/09 14:38:29;;;;;;;5.80;4.43;;;;;;;;;;4985812;28;20779;-53
2022/03/09 14:40:55;;;;;;;10.87;4.97;;;;;;;;;;4983147;28;20423;-53
2022/03/09 14:43:21;;;;;;;6.73;5.13;;;;;;;;;;4982897;28;20426;-52